sensor_id;sensor_type;location;lat;lon;timestamp;P1;durP1;ratioP1;P2;durP2;ratioP2
74369;SDS011;62805;44.644;10.942;2023-03-01T00:01:32;20.20;;;8.43;;
74369;SDS011;62805;44.644;10.942;2023-03-01T00:03:57;20.67;;;8.87;;
74369;SDS011;62805;44.644;10.942;2023-03-01T00:06:23;16.38;;;8.45;;
74369;SDS011;62805;44.644;10.942;2023-03-01T00:08:49;22.70;;;8.93;;
74369;SDS011;62805;44.644;10.942;2023-03-01T00:11:22;18.42;;;8.77;;
74369;SDS011;62805;44.644;10.942;2023-03-01T00:13:53;16.95;;;8.73;;
74369;SDS011;62805;44.644;10.942;2023-03-01T00:16:27;21.02;;;9.05;;
74369;SDS011;62805;44.644;10.942;2023-03-01T00:18:54;18.23;;;9.02;;
74369;SDS011;62805;44.644;10.942;2023-03-01T00:21:20;20.70;;;8.35;;
74369;SDS011;62805;44.644;10.942;2023-03-01T00:23:47;18.50;;;9.27;;
74369;SDS011;62805;44.644;10.942;2023-03-01T00:26:13;19.92;;;8.77;;
74369;SDS011;62805;44.644;10.942;2023-03-01T00:28:39;19.17;;;9.70;;
74369;SDS011;62805;44.644;10.942;2023-03-01T00:31:05;20.13;;;9.45;;
74369;SDS011;62805;44.644;10.942;2023-03-01T00:33:35;20.98;;;9.57;;
74369;SDS011;62805;44.644;10.942;2023-03-01T00:36:00;17.42;;;8.60;;
74369;SDS011;62805;44.644;10.942;2023-03-01T00:38:26;18.20;;;9.02;;
74369;SDS011;62805;44.644;10.942;2023-03-01T00:40:52;22.08;;;9.57;;
74369;SDS011;62805;44.644;10.942;2023-03-01T00:43:17;18.30;;;8.10;;
74369;SDS011;62805;44.644;10.942;2023-03-01T00:45:43;20.25;;;10.05;;
74369;SDS011;62805;44.644;10.942;2023-03-01T00:48:08;20.20;;;9.10;;
74369;SDS011;62805;44.644;10.942;2023-03-01T00:50:33;20.27;;;8.83;;
74369;SDS011;62805;44.644;10.942;2023-03-01T00:52:59;18.40;;;8.90;;
74369;SDS011;62805;44.644;10.942;2023-03-01T00:55:24;19.50;;;8.95;;
74369;SDS011;62805;44.644;10.942;2023-03-01T00:57:50;17.10;;;9.02;;
74369;SDS011;62805;44.644;10.942;2023-03-01T01:00:15;21.88;;;8.63;;
74369;SDS011;62805;44.644;10.942;2023-03-01T01:02:41;19.52;;;9.10;;
74369;SDS011;62805;44.644;10.942;2023-03-01T01:05:07;19.73;;;8.88;;
74369;SDS011;62805;44.644;10.942;2023-03-01T01:07:32;22.30;;;9.25;;
74369;SDS011;62805;44.644;10.942;2023-03-01T01:09:57;19.88;;;8.98;;
74369;SDS011;62805;44.644;10.942;2023-03-01T01:12:23;16.58;;;8.55;;
74369;SDS011;62805;44.644;10.942;2023-03-01T01:14:48;16.15;;;9.27;;
74369;SDS011;62805;44.644;10.942;2023-03-01T01:17:14;18.63;;;8.50;;
74369;SDS011;62805;44.644;10.942;2023-03-01T01:19:39;15.40;;;8.60;;
74369;SDS011;62805;44.644;10.942;2023-03-01T01:22:04;17.60;;;9.00;;
74369;SDS011;62805;44.644;10.942;2023-03-01T01:24:30;22.48;;;8.90;;
74369;SDS011;62805;44.644;10.942;2023-03-01T01:26:55;17.80;;;8.50;;
74369;SDS011;62805;44.644;10.942;2023-03-01T01:29:21;19.42;;;8.88;;
74369;SDS011;62805;44.644;10.942;2023-03-01T01:31:46;18.00;;;8.35;;
74369;SDS011;62805;44.644;10.942;2023-03-01T01:34:13;19.73;;;9.38;;
74369;SDS011;62805;44.644;10.942;2023-03-01T01:36:40;22.85;;;9.70;;
74369;SDS011;62805;44.644;10.942;2023-03-01T01:39:05;20.30;;;9.40;;
74369;SDS011;62805;44.644;10.942;2023-03-01T01:41:31;19.90;;;9.20;;
74369;SDS011;62805;44.644;10.942;2023-03-01T01:46:38;15.85;;;8.13;;
74369;SDS011;62805;44.644;10.942;2023-03-01T01:49:07;16.92;;;7.85;;
74369;SDS011;62805;44.644;10.942;2023-03-01T01:51:39;15.23;;;7.95;;
74369;SDS011;62805;44.644;10.942;2023-03-01T01:54:06;19.10;;;8.73;;
74369;SDS011;62805;44.644;10.942;2023-03-01T01:56:38;18.02;;;8.23;;
74369;SDS011;62805;44.644;10.942;2023-03-01T01:59:05;19.75;;;9.23;;
74369;SDS011;62805;44.644;10.942;2023-03-01T02:01:31;17.45;;;8.48;;
74369;SDS011;62805;44.644;10.942;2023-03-01T02:03:56;18.50;;;8.55;;
74369;SDS011;62805;44.644;10.942;2023-03-01T02:06:28;17.75;;;8.60;;
74369;SDS011;62805;44.644;10.942;2023-03-01T02:09:00;18.40;;;8.85;;
74369;SDS011;62805;44.644;10.942;2023-03-01T02:11:30;20.10;;;9.70;;
74369;SDS011;62805;44.644;10.942;2023-03-01T02:13:58;15.95;;;8.13;;
74369;SDS011;62805;44.644;10.942;2023-03-01T02:16:24;17.77;;;7.95;;
74369;SDS011;62805;44.644;10.942;2023-03-01T02:18:51;19.15;;;8.63;;
74369;SDS011;62805;44.644;10.942;2023-03-01T02:21:30;18.50;;;9.20;;
74369;SDS011;62805;44.644;10.942;2023-03-01T02:26:54;22.10;;;9.32;;
74369;SDS011;62805;44.644;10.942;2023-03-01T02:29:21;17.98;;;9.18;;
74369;SDS011;62805;44.644;10.942;2023-03-01T02:31:47;23.13;;;9.18;;
74369;SDS011;62805;44.644;10.942;2023-03-01T02:34:17;19.48;;;8.40;;
74369;SDS011;62805;44.644;10.942;2023-03-01T02:36:46;18.58;;;8.85;;
74369;SDS011;62805;44.644;10.942;2023-03-01T02:39:15;20.58;;;8.45;;
74369;SDS011;62805;44.644;10.942;2023-03-01T02:41:44;18.88;;;9.10;;
74369;SDS011;62805;44.644;10.942;2023-03-01T02:44:12;18.52;;;8.75;;
74369;SDS011;62805;44.644;10.942;2023-03-01T02:46:44;18.30;;;8.27;;
74369;SDS011;62805;44.644;10.942;2023-03-01T02:49:19;18.17;;;8.55;;
74369;SDS011;62805;44.644;10.942;2023-03-01T02:51:52;20.73;;;9.15;;
74369;SDS011;62805;44.644;10.942;2023-03-01T02:54:28;20.40;;;10.07;;
74369;SDS011;62805;44.644;10.942;2023-03-01T02:56:59;18.77;;;9.43;;
74369;SDS011;62805;44.644;10.942;2023-03-01T02:59:26;19.67;;;9.63;;
74369;SDS011;62805;44.644;10.942;2023-03-01T03:01:54;19.58;;;8.80;;
74369;SDS011;62805;44.644;10.942;2023-03-01T03:04:19;24.33;;;9.10;;
74369;SDS011;62805;44.644;10.942;2023-03-01T03:06:46;22.70;;;10.00;;
74369;SDS011;62805;44.644;10.942;2023-03-01T03:09:12;20.30;;;9.27;;
74369;SDS011;62805;44.644;10.942;2023-03-01T03:11:39;20.90;;;9.45;;
74369;SDS011;62805;44.644;10.942;2023-03-01T03:14:05;20.70;;;8.95;;
74369;SDS011;62805;44.644;10.942;2023-03-01T03:16:38;18.08;;;8.57;;
74369;SDS011;62805;44.644;10.942;2023-03-01T03:19:06;22.58;;;9.55;;
74369;SDS011;62805;44.644;10.942;2023-03-01T03:21:32;19.23;;;8.82;;
74369;SDS011;62805;44.644;10.942;2023-03-01T03:23:58;18.05;;;9.25;;
74369;SDS011;62805;44.644;10.942;2023-03-01T03:26:23;17.75;;;9.18;;
74369;SDS011;62805;44.644;10.942;2023-03-01T03:28:48;20.05;;;9.23;;
74369;SDS011;62805;44.644;10.942;2023-03-01T03:31:14;15.38;;;7.93;;
74369;SDS011;62805;44.644;10.942;2023-03-01T03:33:39;20.53;;;9.23;;
74369;SDS011;62805;44.644;10.942;2023-03-01T03:36:05;18.52;;;9.60;;
74369;SDS011;62805;44.644;10.942;2023-03-01T03:38:30;17.73;;;8.40;;
74369;SDS011;62805;44.644;10.942;2023-03-01T03:41:06;20.88;;;8.57;;
74369;SDS011;62805;44.644;10.942;2023-03-01T03:43:34;17.98;;;8.48;;
74369;SDS011;62805;44.644;10.942;2023-03-01T03:46:01;20.52;;;8.05;;
74369;SDS011;62805;44.644;10.942;2023-03-01T03:48:31;21.08;;;9.18;;
74369;SDS011;62805;44.644;10.942;2023-03-01T03:50:58;18.75;;;9.38;;
74369;SDS011;62805;44.644;10.942;2023-03-01T03:53:24;19.33;;;8.63;;
74369;SDS011;62805;44.644;10.942;2023-03-01T03:55:51;18.42;;;8.20;;
74369;SDS011;62805;44.644;10.942;2023-03-01T03:58:17;19.25;;;9.43;;
74369;SDS011;62805;44.644;10.942;2023-03-01T04:00:45;19.23;;;9.30;;
74369;SDS011;62805;44.644;10.942;2023-03-01T04:03:11;17.80;;;8.38;;
74369;SDS011;62805;44.644;10.942;2023-03-01T04:05:39;18.10;;;9.05;;
74369;SDS011;62805;44.644;10.942;2023-03-01T04:08:05;17.25;;;8.60;;
74369;SDS011;62805;44.644;10.942;2023-03-01T04:10:38;17.65;;;8.57;;
74369;SDS011;62805;44.644;10.942;2023-03-01T04:13:09;16.65;;;7.57;;
74369;SDS011;62805;44.644;10.942;2023-03-01T04:15:38;18.35;;;9.15;;
74369;SDS011;62805;44.644;10.942;2023-03-01T04:18:04;23.85;;;9.75;;
74369;SDS011;62805;44.644;10.942;2023-03-01T04:20:30;17.73;;;9.02;;
74369;SDS011;62805;44.644;10.942;2023-03-01T04:23:05;20.23;;;10.18;;
74369;SDS011;62805;44.644;10.942;2023-03-01T04:25:42;21.63;;;9.95;;
74369;SDS011;62805;44.644;10.942;2023-03-01T04:28:11;19.02;;;9.10;;
74369;SDS011;62805;44.644;10.942;2023-03-01T04:30:37;19.30;;;9.07;;
74369;SDS011;62805;44.644;10.942;2023-03-01T04:33:03;21.88;;;9.27;;
74369;SDS011;62805;44.644;10.942;2023-03-01T04:35:30;17.45;;;8.25;;
74369;SDS011;62805;44.644;10.942;2023-03-01T04:37:56;16.80;;;8.05;;
74369;SDS011;62805;44.644;10.942;2023-03-01T04:40:21;15.80;;;7.93;;
74369;SDS011;62805;44.644;10.942;2023-03-01T04:42:47;19.52;;;8.90;;
74369;SDS011;62805;44.644;10.942;2023-03-01T04:45:12;17.37;;;8.17;;
74369;SDS011;62805;44.644;10.942;2023-03-01T04:47:41;16.98;;;8.40;;
74369;SDS011;62805;44.644;10.942;2023-03-01T04:50:07;20.15;;;7.15;;
74369;SDS011;62805;44.644;10.942;2023-03-01T04:52:34;26.17;;;8.73;;
74369;SDS011;62805;44.644;10.942;2023-03-01T04:54:59;17.48;;;8.20;;
74369;SDS011;62805;44.644;10.942;2023-03-01T04:57:25;20.90;;;8.23;;
74369;SDS011;62805;44.644;10.942;2023-03-01T04:59:50;19.63;;;8.83;;
74369;SDS011;62805;44.644;10.942;2023-03-01T05:02:15;17.80;;;8.33;;
74369;SDS011;62805;44.644;10.942;2023-03-01T05:04:41;18.80;;;8.47;;
74369;SDS011;62805;44.644;10.942;2023-03-01T05:07:06;19.92;;;8.63;;
74369;SDS011;62805;44.644;10.942;2023-03-01T05:09:31;21.03;;;9.40;;
74369;SDS011;62805;44.644;10.942;2023-03-01T05:11:57;19.17;;;9.07;;
74369;SDS011;62805;44.644;10.942;2023-03-01T05:14:22;18.33;;;8.73;;
74369;SDS011;62805;44.644;10.942;2023-03-01T05:16:47;18.85;;;7.95;;
74369;SDS011;62805;44.644;10.942;2023-03-01T05:19:13;18.50;;;7.95;;
74369;SDS011;62805;44.644;10.942;2023-03-01T05:21:40;17.65;;;8.10;;
74369;SDS011;62805;44.644;10.942;2023-03-01T05:24:25;21.10;;;8.02;;
74369;SDS011;62805;44.644;10.942;2023-03-01T05:26:50;15.15;;;7.60;;
74369;SDS011;62805;44.644;10.942;2023-03-01T05:29:19;17.58;;;8.73;;
74369;SDS011;62805;44.644;10.942;2023-03-01T05:31:50;20.92;;;9.05;;
74369;SDS011;62805;44.644;10.942;2023-03-01T05:34:22;18.33;;;8.57;;
74369;SDS011;62805;44.644;10.942;2023-03-01T05:36:48;18.95;;;8.57;;
74369;SDS011;62805;44.644;10.942;2023-03-01T05:39:17;14.95;;;7.60;;
74369;SDS011;62805;44.644;10.942;2023-03-01T05:41:44;17.20;;;7.97;;
74369;SDS011;62805;44.644;10.942;2023-03-01T05:44:09;17.87;;;8.13;;
74369;SDS011;62805;44.644;10.942;2023-03-01T05:46:36;17.05;;;7.60;;
74369;SDS011;62805;44.644;10.942;2023-03-01T05:49:01;19.93;;;8.70;;
74369;SDS011;62805;44.644;10.942;2023-03-01T05:51:27;24.02;;;8.73;;
74369;SDS011;62805;44.644;10.942;2023-03-01T05:53:52;18.40;;;8.70;;
74369;SDS011;62805;44.644;10.942;2023-03-01T05:56:18;19.33;;;8.87;;
74369;SDS011;62805;44.644;10.942;2023-03-01T05:58:43;19.87;;;8.57;;
74369;SDS011;62805;44.644;10.942;2023-03-01T06:01:12;15.50;;;7.73;;
74369;SDS011;62805;44.644;10.942;2023-03-01T06:03:38;20.02;;;7.40;;
74369;SDS011;62805;44.644;10.942;2023-03-01T06:06:03;14.47;;;7.13;;
74369;SDS011;62805;44.644;10.942;2023-03-01T06:08:29;15.63;;;6.75;;
74369;SDS011;62805;44.644;10.942;2023-03-01T06:10:54;19.15;;;9.45;;
74369;SDS011;62805;44.644;10.942;2023-03-01T06:13:20;17.10;;;8.50;;
74369;SDS011;62805;44.644;10.942;2023-03-01T06:15:46;20.80;;;9.18;;
74369;SDS011;62805;44.644;10.942;2023-03-01T06:18:12;18.33;;;7.93;;
74369;SDS011;62805;44.644;10.942;2023-03-01T06:20:37;17.97;;;7.87;;
74369;SDS011;62805;44.644;10.942;2023-03-01T06:23:02;20.33;;;8.00;;
74369;SDS011;62805;44.644;10.942;2023-03-01T06:25:28;20.10;;;9.02;;
74369;SDS011;62805;44.644;10.942;2023-03-01T06:27:55;14.13;;;7.25;;
74369;SDS011;62805;44.644;10.942;2023-03-01T06:30:21;21.65;;;9.15;;
74369;SDS011;62805;44.644;10.942;2023-03-01T06:32:48;20.75;;;8.90;;
74369;SDS011;62805;44.644;10.942;2023-03-01T06:35:14;18.67;;;8.52;;
74369;SDS011;62805;44.644;10.942;2023-03-01T06:37:42;18.88;;;8.57;;
74369;SDS011;62805;44.644;10.942;2023-03-01T06:40:09;16.27;;;6.90;;
74369;SDS011;62805;44.644;10.942;2023-03-01T06:42:36;19.58;;;8.68;;
74369;SDS011;62805;44.644;10.942;2023-03-01T06:45:03;20.50;;;8.77;;
74369;SDS011;62805;44.644;10.942;2023-03-01T06:47:29;14.70;;;7.97;;
74369;SDS011;62805;44.644;10.942;2023-03-01T06:49:55;19.90;;;7.63;;
74369;SDS011;62805;44.644;10.942;2023-03-01T06:52:20;18.38;;;8.60;;
74369;SDS011;62805;44.644;10.942;2023-03-01T06:54:45;21.17;;;8.33;;
74369;SDS011;62805;44.644;10.942;2023-03-01T06:57:11;22.23;;;8.00;;
74369;SDS011;62805;44.644;10.942;2023-03-01T06:59:36;19.83;;;8.80;;
74369;SDS011;62805;44.644;10.942;2023-03-01T07:02:01;19.37;;;8.17;;
74369;SDS011;62805;44.644;10.942;2023-03-01T07:04:27;21.77;;;8.73;;
74369;SDS011;62805;44.644;10.942;2023-03-01T07:06:54;19.00;;;8.68;;
74369;SDS011;62805;44.644;10.942;2023-03-01T07:09:20;17.08;;;6.97;;
74369;SDS011;62805;44.644;10.942;2023-03-01T07:11:47;17.52;;;8.15;;
74369;SDS011;62805;44.644;10.942;2023-03-01T07:14:12;21.75;;;8.82;;
74369;SDS011;62805;44.644;10.942;2023-03-01T07:16:38;15.70;;;7.07;;
74369;SDS011;62805;44.644;10.942;2023-03-01T07:19:03;21.23;;;9.17;;
74369;SDS011;62805;44.644;10.942;2023-03-01T07:21:30;19.33;;;8.27;;
74369;SDS011;62805;44.644;10.942;2023-03-01T07:23:55;19.10;;;8.35;;
74369;SDS011;62805;44.644;10.942;2023-03-01T07:26:20;19.67;;;8.93;;
74369;SDS011;62805;44.644;10.942;2023-03-01T07:28:46;17.17;;;7.17;;
74369;SDS011;62805;44.644;10.942;2023-03-01T07:31:11;21.50;;;8.43;;
74369;SDS011;62805;44.644;10.942;2023-03-01T07:33:36;22.47;;;9.67;;
74369;SDS011;62805;44.644;10.942;2023-03-01T07:36:02;21.20;;;9.32;;
74369;SDS011;62805;44.644;10.942;2023-03-01T07:38:29;17.35;;;7.38;;
74369;SDS011;62805;44.644;10.942;2023-03-01T07:40:58;16.17;;;7.13;;
74369;SDS011;62805;44.644;10.942;2023-03-01T07:43:24;23.75;;;9.60;;
74369;SDS011;62805;44.644;10.942;2023-03-01T07:45:49;19.17;;;8.33;;
74369;SDS011;62805;44.644;10.942;2023-03-01T07:48:15;12.67;;;6.03;;
74369;SDS011;62805;44.644;10.942;2023-03-01T07:50:40;20.17;;;8.52;;
74369;SDS011;62805;44.644;10.942;2023-03-01T07:53:06;21.73;;;9.73;;
74369;SDS011;62805;44.644;10.942;2023-03-01T07:55:31;17.83;;;7.80;;
74369;SDS011;62805;44.644;10.942;2023-03-01T07:57:56;22.00;;;9.43;;
74369;SDS011;62805;44.644;10.942;2023-03-01T08:00:22;19.37;;;8.57;;
74369;SDS011;62805;44.644;10.942;2023-03-01T08:02:47;20.08;;;8.95;;
74369;SDS011;62805;44.644;10.942;2023-03-01T08:05:13;26.08;;;10.45;;
74369;SDS011;62805;44.644;10.942;2023-03-01T08:07:38;15.68;;;7.72;;
74369;SDS011;62805;44.644;10.942;2023-03-01T08:10:04;25.77;;;11.63;;
74369;SDS011;62805;44.644;10.942;2023-03-01T08:12:29;24.67;;;11.18;;
74369;SDS011;62805;44.644;10.942;2023-03-01T08:14:55;19.20;;;8.63;;
74369;SDS011;62805;44.644;10.942;2023-03-01T08:17:21;23.92;;;10.98;;
74369;SDS011;62805;44.644;10.942;2023-03-01T08:19:47;22.20;;;9.27;;
74369;SDS011;62805;44.644;10.942;2023-03-01T08:22:12;24.35;;;11.13;;
74369;SDS011;62805;44.644;10.942;2023-03-01T08:24:38;18.60;;;8.60;;
74369;SDS011;62805;44.644;10.942;2023-03-01T08:27:03;25.15;;;10.60;;
74369;SDS011;62805;44.644;10.942;2023-03-01T08:29:32;24.10;;;10.85;;
74369;SDS011;62805;44.644;10.942;2023-03-01T08:31:58;22.60;;;9.57;;
74369;SDS011;62805;44.644;10.942;2023-03-01T08:34:24;29.50;;;12.05;;
74369;SDS011;62805;44.644;10.942;2023-03-01T08:36:49;32.30;;;11.75;;
74369;SDS011;62805;44.644;10.942;2023-03-01T08:39:16;23.58;;;9.98;;
74369;SDS011;62805;44.644;10.942;2023-03-01T08:41:44;24.45;;;10.13;;
74369;SDS011;62805;44.644;10.942;2023-03-01T08:44:09;26.20;;;11.45;;
74369;SDS011;62805;44.644;10.942;2023-03-01T08:46:37;31.45;;;12.65;;
74369;SDS011;62805;44.644;10.942;2023-03-01T08:49:08;25.85;;;11.25;;
74369;SDS011;62805;44.644;10.942;2023-03-01T08:51:38;27.35;;;12.07;;
74369;SDS011;62805;44.644;10.942;2023-03-01T08:54:04;27.05;;;11.75;;
74369;SDS011;62805;44.644;10.942;2023-03-01T08:56:30;27.70;;;11.35;;
74369;SDS011;62805;44.644;10.942;2023-03-01T08:58:56;28.85;;;12.88;;
74369;SDS011;62805;44.644;10.942;2023-03-01T09:01:21;30.87;;;12.87;;
74369;SDS011;62805;44.644;10.942;2023-03-01T09:03:46;28.83;;;13.47;;
74369;SDS011;62805;44.644;10.942;2023-03-01T09:06:12;27.17;;;12.57;;
74369;SDS011;62805;44.644;10.942;2023-03-01T09:08:39;31.65;;;13.93;;
74369;SDS011;62805;44.644;10.942;2023-03-01T09:11:06;23.73;;;10.75;;
74369;SDS011;62805;44.644;10.942;2023-03-01T09:13:34;29.27;;;12.27;;
74369;SDS011;62805;44.644;10.942;2023-03-01T09:16:00;34.22;;;14.60;;
74369;SDS011;62805;44.644;10.942;2023-03-01T09:18:27;34.08;;;14.25;;
74369;SDS011;62805;44.644;10.942;2023-03-01T09:20:53;29.27;;;12.85;;
74369;SDS011;62805;44.644;10.942;2023-03-01T09:23:21;34.65;;;15.07;;
74369;SDS011;62805;44.644;10.942;2023-03-01T09:25:47;24.10;;;10.30;;
74369;SDS011;62805;44.644;10.942;2023-03-01T09:28:12;37.47;;;16.13;;
74369;SDS011;62805;44.644;10.942;2023-03-01T09:30:37;34.87;;;15.57;;
74369;SDS011;62805;44.644;10.942;2023-03-01T09:33:03;38.80;;;17.30;;
74369;SDS011;62805;44.644;10.942;2023-03-01T09:35:28;33.37;;;14.60;;
74369;SDS011;62805;44.644;10.942;2023-03-01T09:37:54;29.65;;;12.55;;
74369;SDS011;62805;44.644;10.942;2023-03-01T09:40:20;35.23;;;14.07;;
74369;SDS011;62805;44.644;10.942;2023-03-01T09:45:25;25.45;;;10.30;;
74369;SDS011;62805;44.644;10.942;2023-03-01T09:48:02;25.17;;;11.57;;
74369;SDS011;62805;44.644;10.942;2023-03-01T09:50:34;30.08;;;11.82;;
74369;SDS011;62805;44.644;10.942;2023-03-01T09:53:02;25.98;;;10.98;;
74369;SDS011;62805;44.644;10.942;2023-03-01T10:00:46;28.60;;;11.13;;
74369;SDS011;62805;44.644;10.942;2023-03-01T10:08:36;25.88;;;10.40;;
74369;SDS011;62805;44.644;10.942;2023-03-01T10:11:12;19.42;;;9.30;;
74369;SDS011;62805;44.644;10.942;2023-03-01T10:21:28;19.83;;;8.60;;
74369;SDS011;62805;44.644;10.942;2023-03-01T10:26:33;24.73;;;10.93;;
74369;SDS011;62805;44.644;10.942;2023-03-01T10:29:13;19.17;;;8.18;;
74369;SDS011;62805;44.644;10.942;2023-03-01T10:34:14;29.88;;;12.63;;
74369;SDS011;62805;44.644;10.942;2023-03-01T10:36:44;25.25;;;12.23;;
74369;SDS011;62805;44.644;10.942;2023-03-01T10:39:18;25.02;;;11.73;;
74369;SDS011;62805;44.644;10.942;2023-03-01T10:42:01;26.27;;;11.18;;
74369;SDS011;62805;44.644;10.942;2023-03-01T10:44:36;25.50;;;12.25;;
74369;SDS011;62805;44.644;10.942;2023-03-01T10:47:23;25.27;;;11.50;;
74369;SDS011;62805;44.644;10.942;2023-03-01T10:49:59;25.50;;;11.00;;
74369;SDS011;62805;44.644;10.942;2023-03-01T10:52:28;28.17;;;12.02;;
74369;SDS011;62805;44.644;10.942;2023-03-01T10:58:05;29.23;;;13.55;;
74369;SDS011;62805;44.644;10.942;2023-03-01T11:03:40;29.58;;;12.35;;
74369;SDS011;62805;44.644;10.942;2023-03-01T11:06:25;29.48;;;11.90;;
74369;SDS011;62805;44.644;10.942;2023-03-01T11:08:51;28.30;;;12.20;;
74369;SDS011;62805;44.644;10.942;2023-03-01T11:11:22;32.67;;;14.35;;
74369;SDS011;62805;44.644;10.942;2023-03-01T11:13:58;30.45;;;12.80;;
74369;SDS011;62805;44.644;10.942;2023-03-01T11:16:36;29.83;;;13.57;;
74369;SDS011;62805;44.644;10.942;2023-03-01T11:24:10;29.70;;;13.00;;
74369;SDS011;62805;44.644;10.942;2023-03-01T11:26:42;32.88;;;12.77;;
74369;SDS011;62805;44.644;10.942;2023-03-01T11:31:55;22.90;;;10.00;;
74369;SDS011;62805;44.644;10.942;2023-03-01T11:34:26;25.00;;;11.25;;
74369;SDS011;62805;44.644;10.942;2023-03-01T11:37:31;24.45;;;9.32;;
74369;SDS011;62805;44.644;10.942;2023-03-01T11:40:03;27.73;;;12.48;;
74369;SDS011;62805;44.644;10.942;2023-03-01T11:45:06;25.85;;;10.65;;
74369;SDS011;62805;44.644;10.942;2023-03-01T11:50:42;25.92;;;10.77;;
74369;SDS011;62805;44.644;10.942;2023-03-01T12:12:11;26.67;;;10.88;;
74369;SDS011;62805;44.644;10.942;2023-03-01T12:31:44;27.70;;;11.93;;
74369;SDS011;62805;44.644;10.942;2023-03-01T12:37:13;30.02;;;13.30;;
74369;SDS011;62805;44.644;10.942;2023-03-01T12:42:44;29.15;;;12.25;;
74369;SDS011;62805;44.644;10.942;2023-03-01T12:48:37;24.92;;;11.25;;
74369;SDS011;62805;44.644;10.942;2023-03-01T12:51:11;35.28;;;12.43;;
74369;SDS011;62805;44.644;10.942;2023-03-01T12:53:41;34.35;;;13.57;;
74369;SDS011;62805;44.644;10.942;2023-03-01T12:56:09;22.20;;;9.00;;
74369;SDS011;62805;44.644;10.942;2023-03-01T13:01:16;31.20;;;13.02;;
74369;SDS011;62805;44.644;10.942;2023-03-01T13:06:45;29.58;;;12.02;;
74369;SDS011;62805;44.644;10.942;2023-03-01T13:09:30;28.48;;;12.48;;
74369;SDS011;62805;44.644;10.942;2023-03-01T13:12:03;27.90;;;10.48;;
74369;SDS011;62805;44.644;10.942;2023-03-01T13:16:56;29.80;;;12.45;;
74369;SDS011;62805;44.644;10.942;2023-03-01T13:19:23;32.38;;;13.20;;
74369;SDS011;62805;44.644;10.942;2023-03-01T13:24:49;26.85;;;12.40;;
74369;SDS011;62805;44.644;10.942;2023-03-01T13:34:45;27.10;;;12.20;;
74369;SDS011;62805;44.644;10.942;2023-03-01T13:37:25;28.20;;;12.27;;
74369;SDS011;62805;44.644;10.942;2023-03-01T13:40:02;26.15;;;11.85;;
74369;SDS011;62805;44.644;10.942;2023-03-01T13:42:38;28.33;;;11.73;;
74369;SDS011;62805;44.644;10.942;2023-03-01T13:45:19;28.63;;;12.55;;
74369;SDS011;62805;44.644;10.942;2023-03-01T13:47:59;27.25;;;11.43;;
74369;SDS011;62805;44.644;10.942;2023-03-01T13:50:28;31.35;;;12.10;;
74369;SDS011;62805;44.644;10.942;2023-03-01T13:53:02;25.98;;;11.63;;
74369;SDS011;62805;44.644;10.942;2023-03-01T13:55:40;25.98;;;11.38;;
74369;SDS011;62805;44.644;10.942;2023-03-01T13:58:26;22.98;;;9.98;;
74369;SDS011;62805;44.644;10.942;2023-03-01T14:03:26;21.23;;;9.32;;
74369;SDS011;62805;44.644;10.942;2023-03-01T14:05:59;27.65;;;12.95;;
74369;SDS011;62805;44.644;10.942;2023-03-01T14:08:33;24.42;;;10.32;;
74369;SDS011;62805;44.644;10.942;2023-03-01T14:19:23;21.55;;;10.13;;
74369;SDS011;62805;44.644;10.942;2023-03-01T14:24:47;20.73;;;9.02;;
74369;SDS011;62805;44.644;10.942;2023-03-01T14:27:16;28.42;;;10.93;;
74369;SDS011;62805;44.644;10.942;2023-03-01T14:29:42;18.60;;;9.20;;
74369;SDS011;62805;44.644;10.942;2023-03-01T14:32:12;23.35;;;9.38;;
74369;SDS011;62805;44.644;10.942;2023-03-01T14:34:45;22.13;;;10.02;;
74369;SDS011;62805;44.644;10.942;2023-03-01T14:39:51;23.98;;;10.45;;
74369;SDS011;62805;44.644;10.942;2023-03-01T14:42:17;19.13;;;9.07;;
74369;SDS011;62805;44.644;10.942;2023-03-01T14:44:45;25.10;;;9.32;;
74369;SDS011;62805;44.644;10.942;2023-03-01T14:47:12;22.10;;;9.40;;
74369;SDS011;62805;44.644;10.942;2023-03-01T14:49:41;23.38;;;9.68;;
74369;SDS011;62805;44.644;10.942;2023-03-01T14:52:17;20.92;;;9.25;;
74369;SDS011;62805;44.644;10.942;2023-03-01T14:54:51;19.98;;;7.72;;
74369;SDS011;62805;44.644;10.942;2023-03-01T14:57:20;25.95;;;9.40;;
74369;SDS011;62805;44.644;10.942;2023-03-01T14:59:51;21.83;;;10.27;;
74369;SDS011;62805;44.644;10.942;2023-03-01T15:02:20;25.10;;;9.25;;
74369;SDS011;62805;44.644;10.942;2023-03-01T15:04:48;25.40;;;9.85;;
74369;SDS011;62805;44.644;10.942;2023-03-01T15:07:15;25.42;;;11.20;;
74369;SDS011;62805;44.644;10.942;2023-03-01T15:09:41;27.83;;;11.93;;
74369;SDS011;62805;44.644;10.942;2023-03-01T15:14:58;17.20;;;8.18;;
74369;SDS011;62805;44.644;10.942;2023-03-01T15:17:28;28.88;;;11.48;;
74369;SDS011;62805;44.644;10.942;2023-03-01T15:19:56;24.15;;;9.68;;
74369;SDS011;62805;44.644;10.942;2023-03-01T15:22:22;26.30;;;10.70;;
74369;SDS011;62805;44.644;10.942;2023-03-01T15:24:48;26.02;;;10.88;;
74369;SDS011;62805;44.644;10.942;2023-03-01T15:27:18;23.83;;;10.82;;
74369;SDS011;62805;44.644;10.942;2023-03-01T15:29:57;29.98;;;12.52;;
74369;SDS011;62805;44.644;10.942;2023-03-01T15:32:32;26.20;;;11.00;;
74369;SDS011;62805;44.644;10.942;2023-03-01T15:34:59;32.90;;;11.75;;
74369;SDS011;62805;44.644;10.942;2023-03-01T15:40:25;21.15;;;8.90;;
74369;SDS011;62805;44.644;10.942;2023-03-01T15:42:56;20.60;;;8.48;;
74369;SDS011;62805;44.644;10.942;2023-03-01T15:45:24;33.95;;;14.15;;
74369;SDS011;62805;44.644;10.942;2023-03-01T15:47:56;26.60;;;11.30;;
74369;SDS011;62805;44.644;10.942;2023-03-01T15:52:52;31.85;;;12.70;;
74369;SDS011;62805;44.644;10.942;2023-03-01T15:55:20;34.35;;;15.00;;
74369;SDS011;62805;44.644;10.942;2023-03-01T15:57:50;28.20;;;12.30;;
74369;SDS011;62805;44.644;10.942;2023-03-01T16:00:25;32.05;;;13.18;;
74369;SDS011;62805;44.644;10.942;2023-03-01T16:02:50;34.55;;;15.23;;
74369;SDS011;62805;44.644;10.942;2023-03-01T16:05:17;33.77;;;14.73;;
74369;SDS011;62805;44.644;10.942;2023-03-01T16:07:45;39.08;;;16.45;;
74369;SDS011;62805;44.644;10.942;2023-03-01T16:10:10;37.92;;;15.68;;
74369;SDS011;62805;44.644;10.942;2023-03-01T16:12:36;34.67;;;14.07;;
74369;SDS011;62805;44.644;10.942;2023-03-01T16:15:01;39.10;;;17.07;;
74369;SDS011;62805;44.644;10.942;2023-03-01T16:17:27;43.17;;;17.05;;
74369;SDS011;62805;44.644;10.942;2023-03-01T16:19:53;39.63;;;16.05;;
74369;SDS011;62805;44.644;10.942;2023-03-01T16:22:18;34.00;;;15.00;;
74369;SDS011;62805;44.644;10.942;2023-03-01T16:24:49;37.28;;;15.98;;
74369;SDS011;62805;44.644;10.942;2023-03-01T16:27:15;26.30;;;13.25;;
74369;SDS011;62805;44.644;10.942;2023-03-01T16:29:40;31.00;;;14.13;;
74369;SDS011;62805;44.644;10.942;2023-03-01T16:32:05;29.07;;;13.27;;
74369;SDS011;62805;44.644;10.942;2023-03-01T16:34:31;26.38;;;11.93;;
74369;SDS011;62805;44.644;10.942;2023-03-01T16:36:56;32.90;;;14.70;;
74369;SDS011;62805;44.644;10.942;2023-03-01T16:39:21;29.00;;;13.87;;
74369;SDS011;62805;44.644;10.942;2023-03-01T16:41:47;28.35;;;13.40;;